createdAt,value
2019-02-18T00:04:16.006Z,7.30
2019-02-18T00:09:22.240Z,7.20
2019-02-18T00:14:28.451Z,7.00
2019-02-18T00:19:34.758Z,7.00
2019-02-18T00:24:41.020Z,7.30
2019-02-18T00:29:47.407Z,7.30
2019-02-18T00:34:53.726Z,6.90
2019-02-18T00:39:59.943Z,6.90
2019-02-18T00:45:06.656Z,6.60
2019-02-18T00:50:13.217Z,6.40
2019-02-18T00:55:19.420Z,6.30
2019-02-18T01:00:25.642Z,6.20
2019-02-18T01:05:31.860Z,6.40
2019-02-18T01:10:38.052Z,6.60
2019-02-18T01:15:44.347Z,6.70
2019-02-18T01:20:50.525Z,6.60
2019-02-18T01:25:56.837Z,6.70
2019-02-18T01:31:03.106Z,6.60
2019-02-18T01:36:09.331Z,6.70
2019-02-18T01:41:15.548Z,6.80
2019-02-18T01:46:21.853Z,6.50
2019-02-18T01:51:28.114Z,6.50
2019-02-18T01:56:34.458Z,6.30
2019-02-18T02:01:40.690Z,6.00
2019-02-18T02:06:46.919Z,6.30
2019-02-18T02:11:53.251Z,6.40
2019-02-18T02:17:00.727Z,6.20
2019-02-18T02:22:07.086Z,6.40
2019-02-18T02:27:13.409Z,6.50
2019-02-18T02:32:19.639Z,6.50
2019-02-18T02:37:25.999Z,6.30
2019-02-18T02:42:32.178Z,5.90
2019-02-18T02:47:38.480Z,5.70
2019-02-18T02:52:44.663Z,5.50
2019-02-18T02:57:50.893Z,5.30
2019-02-18T03:02:57.106Z,5.50
2019-02-18T03:08:04.520Z,5.80
2019-02-18T03:13:10.842Z,6.00
2019-02-18T03:18:17.025Z,6.10
2019-02-18T03:23:23.273Z,6.00
2019-02-18T03:29:22.255Z,6.00
2019-02-18T03:34:38.364Z,6.00
2019-02-18T03:39:44.566Z,6.00
2019-02-18T03:44:50.876Z,5.90
2019-02-18T03:49:57.102Z,6.00
2019-02-18T03:55:03.461Z,5.80
2019-02-18T04:00:10.098Z,5.50
2019-02-18T04:05:16.383Z,5.30
2019-02-18T04:10:22.596Z,5.20
2019-02-18T04:15:28.895Z,5.00
2019-02-18T04:20:35.112Z,4.90
2019-02-18T04:25:41.337Z,4.90
2019-02-18T04:30:47.550Z,4.70
2019-02-18T04:35:53.937Z,4.60
2019-02-18T04:41:00.554Z,4.40
2019-02-18T04:46:06.829Z,4.30
2019-02-18T04:51:13.111Z,4.20
2019-02-18T04:56:19.392Z,4.10
2019-02-18T05:01:25.603Z,4.00
2019-02-18T05:06:31.809Z,4.00
2019-02-18T05:11:38.082Z,3.90
2019-02-18T05:16:44.356Z,3.90
2019-02-18T05:21:50.574Z,3.80
2019-02-18T05:26:56.809Z,3.80
2019-02-18T05:32:03.046Z,3.70
2019-02-18T05:37:09.339Z,3.70
2019-02-18T05:42:15.525Z,3.70
2019-02-18T05:47:21.757Z,3.70
2019-02-18T05:52:28.036Z,3.50
2019-02-18T05:57:34.202Z,3.60
2019-02-18T06:02:40.431Z,3.40
2019-02-18T06:07:46.656Z,3.40
2019-02-18T06:12:52.830Z,3.40
2019-02-18T06:17:59.064Z,3.40
2019-02-18T06:23:05.501Z,3.30
2019-02-18T06:28:11.982Z,3.30
2019-02-18T06:33:18.474Z,3.20
2019-02-18T06:38:24.687Z,3.20
2019-02-18T06:43:31.012Z,3.30
2019-02-18T06:48:40.034Z,3.20
2019-02-18T06:53:46.419Z,3.20
2019-02-18T06:59:00.302Z,3.10
2019-02-18T07:04:20.700Z,3.10
2019-02-18T07:09:51.354Z,3.10
2019-02-18T07:14:52.820Z,3.00
2019-02-18T07:20:01.333Z,3.00
2019-02-18T07:25:30.455Z,3.10
2019-02-18T07:30:36.764Z,3.10
2019-02-18T07:35:43.334Z,3.00
2019-02-18T07:40:49.544Z,3.10
2019-02-18T07:45:56.146Z,3.10
2019-02-18T07:51:02.534Z,3.20
2019-02-18T07:56:08.852Z,3.30
2019-02-18T08:01:15.434Z,3.40
2019-02-18T08:06:21.686Z,3.50
2019-02-18T08:11:28.066Z,3.70
2019-02-18T08:16:34.496Z,3.90
2019-02-18T08:21:40.774Z,4.10
2019-02-18T08:26:47.041Z,4.70
2019-02-18T08:31:53.426Z,5.00
2019-02-18T08:36:59.816Z,5.40
2019-02-18T08:42:06.107Z,5.80
2019-02-18T08:47:12.443Z,6.50
2019-02-18T08:52:18.770Z,7.20
2019-02-18T08:57:25.089Z,7.60
2019-02-18T09:02:31.516Z,8.50
2019-02-18T09:07:38.102Z,8.80
2019-02-18T09:12:44.465Z,9.30
2019-02-18T09:17:50.784Z,10.00
2019-02-18T09:23:06.291Z,10.00
2019-02-18T09:28:12.708Z,10.60
2019-02-18T09:33:21.118Z,11.60
2019-02-18T09:38:29.157Z,12.40
2019-02-18T09:43:35.554Z,12.80
2019-02-18T09:48:41.898Z,13.30
2019-02-18T09:53:48.200Z,13.80
2019-02-18T09:58:58.953Z,14.00
2019-02-18T10:04:05.738Z,14.30
2019-02-18T10:09:15.552Z,14.70
2019-02-18T10:14:21.986Z,14.90
2019-02-18T10:19:28.315Z,15.00
2019-02-18T10:24:34.584Z,15.60
2019-02-18T10:29:43.965Z,15.60
2019-02-18T10:34:50.610Z,16.30
2019-02-18T10:39:59.669Z,16.20
2019-02-18T10:45:10.313Z,16.20
2019-02-18T10:50:18.705Z,16.30
2019-02-18T10:55:31.276Z,16.60
2019-02-18T11:00:41.235Z,16.10
2019-02-18T11:05:47.602Z,16.60
2019-02-18T11:10:56.120Z,16.40
2019-02-18T11:16:02.328Z,17.30
2019-02-18T11:21:11.115Z,17.60
2019-02-18T11:26:17.864Z,17.80
2019-02-18T11:31:24.116Z,16.80
2019-02-18T11:36:30.359Z,16.80
2019-02-18T11:41:36.941Z,17.00
2019-02-18T11:46:43.436Z,16.50
2019-02-18T11:51:55.571Z,17.10
2019-02-18T11:57:03.784Z,16.70
2019-02-18T12:02:10.066Z,17.50
2019-02-18T12:07:16.903Z,17.30
2019-02-18T12:12:23.410Z,17.20
2019-02-18T12:17:30.988Z,17.60
2019-02-18T12:22:39.218Z,17.70
2019-02-18T12:27:46.872Z,17.70
2019-02-18T12:32:53.112Z,17.80
2019-02-18T12:37:59.426Z,17.70
2019-02-18T12:43:05.924Z,17.50
2019-02-18T12:48:14.885Z,17.80
2019-02-18T12:53:24.405Z,18.10
2019-02-18T12:58:32.026Z,18.10
2019-02-18T13:03:38.460Z,17.90
2019-02-18T13:08:44.775Z,18.00
2019-02-18T13:13:51.121Z,18.10
2019-02-18T13:18:59.943Z,17.90
2019-02-18T13:24:06.418Z,17.50
2019-02-18T13:29:16.710Z,17.50
2019-02-18T13:34:25.920Z,17.60
2019-02-18T13:39:34.236Z,17.40
2019-02-18T13:44:40.602Z,17.40
2019-02-18T13:49:49.454Z,17.50
2019-02-18T13:54:55.799Z,17.50
2019-02-18T14:00:04.676Z,17.50
2019-02-18T14:05:11.992Z,17.70
2019-02-18T14:10:19.575Z,17.70
2019-02-18T14:15:25.964Z,17.90
2019-02-18T14:20:32.685Z,17.80
2019-02-18T14:25:39.122Z,17.80
2019-02-18T14:30:45.477Z,17.80
2019-02-18T14:35:52.768Z,17.50
2019-02-18T14:41:01.279Z,17.60
2019-02-18T14:46:09.332Z,17.70
2019-02-18T14:51:15.793Z,17.50
2019-02-18T14:56:22.253Z,17.50
2019-02-18T15:01:28.537Z,17.50
2019-02-18T15:06:37.497Z,17.40
2019-02-18T15:11:44.877Z,17.50
2019-02-18T15:16:51.317Z,17.30
2019-02-18T15:22:01.850Z,17.20
2019-02-18T15:27:08.646Z,17.20
2019-02-18T15:32:14.976Z,17.10
2019-02-18T15:37:21.512Z,17.00
2019-02-18T15:42:28.238Z,16.80
2019-02-18T15:47:34.613Z,16.70
2019-02-18T15:52:41.052Z,16.50
2019-02-18T15:57:47.749Z,16.40
2019-02-18T16:02:56.824Z,16.30
2019-02-18T16:08:03.237Z,16.00
2019-02-18T16:13:09.609Z,15.80
2019-02-18T16:18:16.058Z,15.70
2019-02-18T16:23:22.356Z,15.60
2019-02-18T16:28:29.292Z,15.50
2019-02-18T16:33:36.796Z,15.40
2019-02-18T16:38:43.144Z,15.30
2019-02-18T16:43:51.413Z,15.10
2019-02-18T16:48:58.161Z,14.90
2019-02-18T16:54:05.755Z,14.70
2019-02-18T16:59:12.182Z,14.60
2019-02-18T17:04:18.954Z,14.20
2019-02-18T17:09:25.284Z,14.00
2019-02-18T17:14:31.695Z,13.60
2019-02-18T17:19:39.821Z,13.40
2019-02-18T17:24:46.879Z,13.20
2019-02-18T17:29:53.199Z,13.00
2019-02-18T17:35:00.005Z,12.90
2019-02-18T17:40:06.875Z,12.80
2019-02-18T17:45:13.867Z,12.70
2019-02-18T17:50:21.274Z,12.50
2019-02-18T17:55:27.621Z,12.30
2019-02-18T18:00:34.859Z,12.10
2019-02-18T18:05:41.385Z,11.90
2019-02-18T18:10:47.883Z,11.70
2019-02-18T18:15:55.280Z,11.60
2019-02-18T18:21:02.984Z,11.60
2019-02-18T18:26:12.654Z,11.70
2019-02-18T18:31:19.511Z,11.80
2019-02-18T18:36:25.843Z,11.70
2019-02-18T18:41:32.166Z,11.50
2019-02-18T18:46:41.337Z,11.40
2019-02-18T18:51:50.456Z,11.40
2019-02-18T18:56:57.032Z,11.20
2019-02-18T19:02:06.836Z,11.20
2019-02-18T19:07:13.176Z,11.20
2019-02-18T19:12:19.515Z,11.10
2019-02-18T19:17:26.131Z,11.10
2019-02-18T19:22:33.000Z,11.00
2019-02-18T19:27:39.424Z,10.90
2019-02-18T19:32:48.359Z,10.80
2019-02-18T19:37:55.956Z,10.80
2019-02-18T19:43:02.673Z,10.70
2019-02-18T19:48:10.304Z,10.60
2019-02-18T19:53:16.527Z,10.50
2019-02-18T19:58:23.324Z,10.40
2019-02-18T20:03:29.679Z,10.30
2019-02-18T20:08:36.549Z,10.30
2019-02-18T20:13:43.061Z,10.10
2019-02-18T20:18:51.311Z,9.90
2019-02-18T20:23:57.597Z,9.70
2019-02-18T20:29:04.212Z,9.70
2019-02-18T20:34:11.017Z,9.70
2019-02-18T20:39:17.399Z,9.60
2019-02-18T20:44:23.839Z,9.60
2019-02-18T20:49:30.071Z,9.30
2019-02-18T20:54:36.371Z,9.30
2019-02-18T20:59:42.723Z,9.30
2019-02-18T21:04:50.476Z,9.30
2019-02-18T21:09:58.673Z,9.20
2019-02-18T21:15:05.794Z,9.20
2019-02-18T21:20:12.735Z,9.20
2019-02-18T21:25:20.173Z,9.10
2019-02-18T21:30:26.474Z,9.00
2019-02-18T21:35:32.788Z,9.00
2019-02-18T21:40:39.161Z,8.90
2019-02-18T21:45:46.022Z,8.80
2019-02-18T21:50:52.699Z,8.80
2019-02-18T21:55:59.038Z,8.70
2019-02-18T22:01:05.424Z,8.60
2019-02-18T22:06:11.859Z,8.70
2019-02-18T22:11:18.448Z,8.60
2019-02-18T22:16:24.643Z,8.60
2019-02-18T22:21:33.005Z,8.40
2019-02-18T22:26:39.411Z,8.40
2019-02-18T22:31:45.642Z,8.40
2019-02-18T22:36:51.988Z,8.40
2019-02-18T22:41:58.276Z,8.50
2019-02-18T22:47:05.858Z,8.50
2019-02-18T22:52:12.108Z,8.50
2019-02-18T22:57:21.276Z,8.60
2019-02-18T23:02:27.735Z,8.50
2019-02-18T23:07:34.216Z,8.50
2019-02-18T23:12:40.598Z,8.50
2019-02-18T23:17:46.854Z,8.40
2019-02-18T23:22:56.156Z,8.50
2019-02-18T23:28:02.420Z,8.40
2019-02-18T23:33:09.084Z,8.30
2019-02-18T23:38:15.411Z,8.30
2019-02-18T23:43:24.447Z,8.30
2019-02-18T23:48:30.713Z,8.20
2019-02-18T23:53:36.943Z,8.10
2019-02-18T23:58:43.193Z,8.10
